Time;durP1;ratioP1;P1;durP2;ratioP2;P2;SDS_P1;SDS_P2;PMS_P1;PMS_P2;Temp;Humidity;BMP_temperature;BMP_pressure;BME280_temperature;BME280_humidity;BME280_pressure;Samples;Min_cycle;Max_cycle;Signal;HPM_P1;HPM_P2
2023/01/19 00:00:09;;;;;;;22.35;9.20;;;-3.40;99.90;;;;;;5092564;28;20381;-69
2023/01/19 00:02:35;;;;;;;21.77;9.48;;;-3.40;99.90;;;;;;5088633;28;20016;-68
2023/01/19 00:05:02;;;;;;;20.17;9.05;;;-3.40;99.90;;;;;;5083305;28;20027;-68
2023/01/19 00:07:31;;;;;;;15.73;7.63;;;-3.50;99.90;;;;;;5073954;28;20024;-68
2023/01/19 00:09:57;;;;;;;27.20;9.00;;;-3.50;99.90;;;;;;5105440;28;20115;-68
2023/01/19 00:12:23;;;;;;;26.52;9.60;;;-3.50;99.90;;;;;;5080817;28;20044;-69
2023/01/19 00:14:49;;;;;;;19.88;9.25;;;-3.60;99.90;;;;;;5108356;28;20368;-68
2023/01/19 00:17:14;;;;;;;19.23;9.60;;;-3.60;99.90;;;;;;5082038;28;20123;-68
2023/01/19 00:19:40;;;;;;;14.38;6.60;;;-3.60;99.90;;;;;;5108851;28;20085;-68
2023/01/19 00:22:05;;;;;;;23.13;10.02;;;-3.60;99.90;;;;;;5088008;28;20458;-69
2023/01/19 00:24:31;;;;;;;20.58;8.25;;;-3.70;99.90;;;;;;5111366;28;20032;-67
2023/01/19 00:26:57;;;;;;;17.25;7.82;;;-3.70;99.90;;;;;;5093384;28;20403;-68
2023/01/19 00:29:22;;;;;;;24.67;9.15;;;-3.70;99.90;;;;;;5112479;28;20034;-68
2023/01/19 00:31:48;;;;;;;21.75;8.63;;;-3.70;99.90;;;;;;5090455;28;20682;-68
2023/01/19 00:34:14;;;;;;;19.65;8.32;;;-3.80;99.90;;;;;;5111373;28;20583;-69
2023/01/19 00:36:40;;;;;;;18.88;8.10;;;-3.80;99.90;;;;;;5090125;28;20047;-68
2023/01/19 00:39:06;;;;;;;17.88;7.93;;;-3.80;99.90;;;;;;5111615;28;20089;-68
2023/01/19 00:44:15;;;;;;;16.50;8.05;;;-3.90;99.90;;;;;;5071518;28;20043;-68
2023/01/19 00:46:41;;;;;;;21.38;8.18;;;-3.90;99.90;;;;;;5099296;28;20044;-68
2023/01/19 00:49:06;;;;;;;24.10;8.23;;;-3.90;99.90;;;;;;5111319;28;20119;-68
2023/01/19 00:51:32;;;;;;;16.20;7.40;;;-3.90;99.90;;;;;;5090137;28;20028;-68
2023/01/19 00:54:03;;;;;;;19.58;9.27;;;-3.90;99.90;;;;;;5111168;28;20487;-68
2023/01/19 00:56:32;;;;;;;20.35;8.50;;;-4.00;99.90;;;;;;5077037;28;20042;-68
2023/01/19 00:58:58;;;;;;;18.73;8.38;;;-4.00;99.90;;;;;;5111072;28;20464;-68
2023/01/19 01:01:24;;;;;;;20.13;8.15;;;-4.00;99.90;;;;;;5090060;28;20115;-68
2023/01/19 01:03:49;;;;;;;13.93;5.90;;;-4.10;99.90;;;;;;5091394;28;20464;-67
2023/01/19 01:06:14;;;;;;;14.73;6.57;;;-4.10;99.90;;;;;;5095653;28;20103;-68
2023/01/19 01:08:40;;;;;;;19.63;8.05;;;-4.00;99.90;;;;;;5091263;28;20416;-68
2023/01/19 01:11:05;;;;;;;17.63;7.05;;;-4.10;99.90;;;;;;5104573;28;20067;-68
2023/01/19 01:13:31;;;;;;;17.00;7.00;;;-4.10;99.90;;;;;;5091029;28;20039;-67
2023/01/19 01:15:56;;;;;;;17.83;8.43;;;-4.10;99.90;;;;;;5108567;28;20103;-68
2023/01/19 01:18:23;;;;;;;19.60;9.80;;;-4.10;99.90;;;;;;5111194;28;20023;-68
2023/01/19 01:20:48;;;;;;;17.95;7.05;;;-4.10;99.90;;;;;;5090037;28;20061;-68
2023/01/19 01:23:14;;;;;;;15.68;6.93;;;-4.10;99.90;;;;;;5109451;28;20096;-68
2023/01/19 01:25:41;;;;;;;15.63;7.65;;;-4.10;99.90;;;;;;5089614;28;20039;-68
2023/01/19 01:28:07;;;;;;;27.58;9.27;;;-4.10;99.90;;;;;;5109751;28;20039;-68
2023/01/19 01:30:34;;;;;;;15.52;7.78;;;-4.10;99.90;;;;;;5096802;28;20054;-68
2023/01/19 01:33:00;;;;;;;10.10;5.45;;;-4.10;99.90;;;;;;5085839;28;20032;-68
2023/01/19 01:35:25;;;;;;;14.48;6.53;;;-4.10;99.90;;;;;;5109597;28;20039;-68
2023/01/19 01:37:51;;;;;;;21.65;8.05;;;-4.10;99.90;;;;;;5088735;28;20035;-68
2023/01/19 01:40:17;;;;;;;16.60;7.30;;;-4.20;99.90;;;;;;5109782;28;20055;-68
2023/01/19 01:42:44;;;;;;;14.38;7.13;;;-4.20;99.90;;;;;;5088830;28;20028;-68
2023/01/19 01:45:37;;;;;;;18.30;7.07;;;-4.20;99.90;;;;;;5108659;28;20027;-69
2023/01/19 01:48:21;;;;;;;19.13;7.30;;;-4.20;99.90;;;;;;5070155;28;20059;-68
2023/01/19 01:53:38;;;;;;;14.27;6.35;;;-4.30;99.90;;;;;;5110716;28;20038;-68
2023/01/19 01:56:08;;;;;;;16.50;6.82;;;-4.30;99.90;;;;;;5092470;28;20103;-68
2023/01/19 01:58:35;;;;;;;16.02;6.65;;;-4.30;99.90;;;;;;5110240;28;20043;-68
2023/01/19 02:03:45;;;;;;;15.85;7.45;;;-4.30;99.90;;;;;;5110557;28;20034;-68
2023/01/19 02:06:12;;;;;;;14.00;6.10;;;-4.30;99.90;;;;;;5086520;28;20028;-69
2023/01/19 02:14:20;;;;;;;17.80;7.47;;;-4.30;99.90;;;;;;5069443;28;20289;-69
2023/01/19 02:16:46;;;;;;;21.42;9.30;;;-4.40;99.90;;;;;;5106846;28;20114;-68
2023/01/19 02:19:23;;;;;;;18.17;7.00;;;-4.40;99.90;;;;;;5089992;28;20039;-68
2023/01/19 02:22:14;;;;;;;16.00;6.47;;;-4.50;99.90;;;;;;5088373;28;20098;-68
2023/01/19 02:24:39;;;;;;;19.17;7.40;;;-4.50;99.90;;;;;;5069364;28;20503;-68
2023/01/19 02:27:06;;;;;;;16.00;7.40;;;-4.50;99.90;;;;;;5094013;28;20032;-68
2023/01/19 02:29:33;;;;;;;21.38;9.93;;;-4.60;99.90;;;;;;5109116;28;20024;-68
2023/01/19 02:32:00;;;;;;;20.98;9.27;;;-4.60;99.90;;;;;;5087851;28;20416;-60
2023/01/19 02:34:26;;;;;;;15.10;7.70;;;-4.50;99.90;;;;;;5109325;28;20028;-65
2023/01/19 02:36:55;;;;;;;19.60;9.07;;;-4.60;99.90;;;;;;5098537;28;20028;-66
2023/01/19 02:39:37;;;;;;;17.83;7.32;;;-4.60;99.90;;;;;;5089425;28;20032;-66
2023/01/19 02:42:07;;;;;;;15.82;7.10;;;-4.70;99.90;;;;;;5091836;28;20655;-66
2023/01/19 02:44:34;;;;;;;13.05;6.55;;;-4.70;99.90;;;;;;5089046;28;20032;-67
2023/01/19 02:46:59;;;;;;;20.55;6.70;;;-4.70;99.90;;;;;;5095217;28;20028;-67
2023/01/19 02:49:29;;;;;;;11.05;5.68;;;-4.70;99.90;;;;;;5108706;28;20034;-67
2023/01/19 02:51:55;;;;;;;11.73;6.30;;;-4.70;99.90;;;;;;5087015;28;20039;-67
2023/01/19 02:54:30;;;;;;;14.15;7.07;;;-4.70;99.90;;;;;;5108070;28;20457;-67
2023/01/19 02:57:22;;;;;;;22.97;8.93;;;-4.70;99.90;;;;;;5076306;28;20028;-67
2023/01/19 03:00:15;;;;;;;22.50;9.45;;;-4.60;99.90;;;;;;5068705;28;20271;-67
2023/01/19 03:02:49;;;;;;;20.08;9.90;;;-4.60;99.90;;;;;;5067624;28;20024;-66
2023/01/19 03:05:18;;;;;;;17.67;8.27;;;-4.50;99.90;;;;;;5072816;28;20459;-66
2023/01/19 03:08:07;;;;;;;17.98;9.32;;;-4.50;99.90;;;;;;5088918;28;20029;-66
2023/01/19 03:10:52;;;;;;;18.50;8.45;;;-4.40;99.90;;;;;;5072500;28;20030;-66
2023/01/19 03:13:31;;;;;;;22.52;10.48;;;-4.40;99.90;;;;;;5109366;28;20073;-67
2023/01/19 03:16:20;;;;;;;16.65;7.75;;;-4.50;99.90;;;;;;5079469;28;20080;-67
2023/01/19 03:18:51;;;;;;;13.25;6.78;;;-4.40;99.90;;;;;;5109345;28;20046;-66
2023/01/19 03:21:19;;;;;;;19.58;7.60;;;-4.40;99.90;;;;;;5084972;28;20032;-66
2023/01/19 03:23:46;;;;;;;16.15;8.00;;;-4.50;99.90;;;;;;5088940;28;20036;-67
2023/01/19 03:26:17;;;;;;;18.90;8.32;;;-4.40;99.90;;;;;;5106501;28;20023;-67
2023/01/19 03:28:45;;;;;;;18.33;8.00;;;-4.50;99.90;;;;;;5068603;28;20037;-66
2023/01/19 03:31:15;;;;;;;21.38;8.38;;;-4.50;99.90;;;;;;5106061;28;20054;-67
2023/01/19 03:33:48;;;;;;;16.65;7.45;;;-4.60;99.90;;;;;;5068498;28;20537;-66
2023/01/19 03:36:24;;;;;;;17.35;7.03;;;-4.60;99.90;;;;;;5089990;28;20024;-67
2023/01/19 03:38:50;;;;;;;19.85;7.43;;;-4.60;99.90;;;;;;5068408;28;20029;-66
2023/01/19 03:41:20;;;;;;;15.43;6.82;;;-4.70;99.90;;;;;;5106036;28;20104;-66
2023/01/19 03:43:50;;;;;;;16.83;7.57;;;-4.80;99.90;;;;;;5110755;28;20063;-67
2023/01/19 03:46:17;;;;;;;11.43;5.55;;;-4.80;99.90;;;;;;5078042;28;20311;-66
2023/01/19 03:48:44;;;;;;;15.07;6.38;;;-4.80;99.90;;;;;;5112935;28;20391;-66
2023/01/19 03:51:12;;;;;;;17.98;7.95;;;-4.90;99.90;;;;;;5093861;28;20064;-66
2023/01/19 03:53:37;;;;;;;16.88;7.05;;;-4.90;99.90;;;;;;5112961;28;20015;-65
2023/01/19 03:56:03;;;;;;;19.35;8.40;;;-4.90;99.90;;;;;;5093018;28;20024;-66
2023/01/19 03:58:28;;;;;;;23.23;9.93;;;-5.00;99.90;;;;;;5112616;27;20042;-66
2023/01/19 04:00:54;;;;;;;20.95;8.63;;;-4.90;99.90;;;;;;5091568;28;20035;-66
2023/01/19 04:03:20;;;;;;;21.92;9.30;;;-4.90;99.90;;;;;;5112770;28;20047;-66
2023/01/19 04:05:45;;;;;;;15.77;8.55;;;-4.90;99.90;;;;;;5099940;28;20395;-54
2023/01/19 04:08:11;;;;;;;16.48;7.80;;;-4.90;99.90;;;;;;5110447;28;20046;-55
2023/01/19 04:10:37;;;;;;;16.58;8.07;;;-4.90;99.90;;;;;;5092607;28;20036;-54
2023/01/19 04:13:03;;;;;;;17.88;7.70;;;-5.00;99.90;;;;;;5089843;28;20066;-54
2023/01/19 04:15:29;;;;;;;18.30;7.80;;;-5.00;99.90;;;;;;5111731;28;20461;-61
2023/01/19 04:18:01;;;;;;;19.73;9.10;;;-5.00;99.90;;;;;;5090666;28;20490;-61
2023/01/19 04:20:27;;;;;;;19.63;8.55;;;-4.90;99.90;;;;;;5111881;28;20028;-61
2023/01/19 04:22:57;;;;;;;23.30;10.55;;;-4.90;99.90;;;;;;5090464;28;20062;-61
2023/01/19 04:25:22;;;;;;;24.30;10.25;;;-4.80;99.90;;;;;;5112339;28;20051;-61
2023/01/19 04:27:51;;;;;;;23.73;10.93;;;-4.80;99.90;;;;;;5090301;28;20242;-61
2023/01/19 04:30:16;;;;;;;18.23;9.25;;;-4.80;99.90;;;;;;5107147;28;20496;-61
2023/01/19 04:32:43;;;;;;;23.80;9.85;;;-4.80;99.90;;;;;;5105850;28;20077;-61
2023/01/19 04:35:08;;;;;;;23.08;9.90;;;-4.70;99.90;;;;;;5092056;28;20027;-61
2023/01/19 04:37:34;;;;;;;21.83;10.35;;;-4.70;99.90;;;;;;5094577;28;20036;-61
2023/01/19 04:39:59;;;;;;;22.85;10.73;;;-4.70;99.90;;;;;;5111179;28;20035;-61
2023/01/19 04:42:26;;;;;;;22.00;10.23;;;-4.70;99.90;;;;;;5090552;28;20103;-61
2023/01/19 04:44:52;;;;;;;21.83;8.50;;;-4.80;99.90;;;;;;5110955;28;20023;-61
2023/01/19 04:47:18;;;;;;;15.93;7.95;;;-4.80;99.90;;;;;;5090058;28;20024;-61
2023/01/19 04:49:44;;;;;;;17.45;9.13;;;-4.80;99.90;;;;;;5111015;28;20046;-61
2023/01/19 04:52:09;;;;;;;15.57;7.75;;;-4.80;99.90;;;;;;5089905;28;20573;-61
2023/01/19 04:54:35;;;;;;;17.60;7.10;;;-4.80;99.90;;;;;;5093087;28;20549;-61
2023/01/19 04:57:00;;;;;;;17.17;7.70;;;-4.90;99.90;;;;;;5090923;28;20115;-61
2023/01/19 04:59:26;;;;;;;20.33;9.90;;;-4.90;99.90;;;;;;5100865;28;20031;-61
2023/01/19 05:01:51;;;;;;;20.30;8.55;;;-4.90;99.90;;;;;;5110767;28;20476;-61
2023/01/19 05:04:17;;;;;;;21.48;8.00;;;-4.90;99.90;;;;;;5089964;28;20032;-61
2023/01/19 05:06:42;;;;;;;20.63;8.88;;;-5.00;99.90;;;;;;5107375;28;20541;-61
2023/01/19 05:09:10;;;;;;;21.75;8.77;;;-4.90;99.90;;;;;;5095387;28;20062;-61
2023/01/19 05:11:36;;;;;;;21.92;9.23;;;-4.90;99.90;;;;;;5111739;28;20031;-61
2023/01/19 05:14:02;;;;;;;19.40;8.60;;;-5.00;99.90;;;;;;5089786;28;20020;-61
2023/01/19 05:16:27;;;;;;;21.63;8.88;;;-5.00;99.90;;;;;;5091187;28;20073;-61
2023/01/19 05:18:52;;;;;;;21.70;9.18;;;-5.00;99.90;;;;;;5108573;28;20110;-62
2023/01/19 05:21:18;;;;;;;18.80;9.50;;;-5.00;99.90;;;;;;5111203;28;20032;-61
2023/01/19 05:23:44;;;;;;;27.27;11.85;;;-5.00;99.90;;;;;;5092071;28;20476;-62
2023/01/19 05:26:09;;;;;;;25.15;11.45;;;-5.00;99.90;;;;;;5111216;28;20115;-61
2023/01/19 05:28:36;;;;;;;24.08;10.18;;;-5.00;99.90;;;;;;5089360;28;20036;-61
2023/01/19 05:31:01;;;;;;;23.70;10.60;;;-5.00;99.90;;;;;;5101121;28;20100;-61
2023/01/19 05:33:26;;;;;;;24.98;9.50;;;-4.90;99.90;;;;;;5089086;28;20043;-61
2023/01/19 05:35:53;;;;;;;26.88;11.25;;;-4.90;99.90;;;;;;5088526;28;20040;-61
2023/01/19 05:38:19;;;;;;;24.88;11.15;;;-4.90;99.90;;;;;;5090848;28;20037;-62
2023/01/19 05:40:45;;;;;;;25.30;12.20;;;-4.90;99.90;;;;;;5110300;28;20547;-61
2023/01/19 05:43:10;;;;;;;22.85;10.13;;;-4.90;99.90;;;;;;5089269;28;20034;-62
2023/01/19 05:45:37;;;;;;;34.88;13.40;;;-4.90;99.90;;;;;;5109328;28;20027;-61
2023/01/19 05:48:03;;;;;;;26.98;12.63;;;-4.90;99.90;;;;;;5088756;28;20036;-62
2023/01/19 05:50:29;;;;;;;26.88;13.00;;;-4.80;99.90;;;;;;5110034;28;20069;-61
2023/01/19 05:52:55;;;;;;;27.15;11.90;;;-4.80;99.90;;;;;;5084706;28;20035;-61
2023/01/19 05:55:21;;;;;;;31.73;14.57;;;-4.70;99.90;;;;;;5090377;28;20095;-61
2023/01/19 05:57:46;;;;;;;29.15;13.38;;;-4.70;99.90;;;;;;5105519;28;20027;-61
2023/01/19 06:00:12;;;;;;;37.38;14.57;;;-4.70;99.90;;;;;;5090025;28;20102;-61
2023/01/19 06:02:38;;;;;;;28.27;13.75;;;-4.70;99.90;;;;;;5092481;28;20037;-61
2023/01/19 06:05:04;;;;;;;28.13;14.32;;;-4.60;99.90;;;;;;5099140;28;20028;-61
2023/01/19 06:07:30;;;;;;;26.40;13.85;;;-4.60;99.90;;;;;;5087629;28;20145;-61
2023/01/19 06:09:56;;;;;;;25.98;11.43;;;-4.60;99.90;;;;;;5090131;28;20042;-61
2023/01/19 06:12:22;;;;;;;25.70;12.20;;;-4.50;99.90;;;;;;5105038;28;20563;-62
2023/01/19 06:14:48;;;;;;;31.67;13.25;;;-4.50;99.90;;;;;;5085462;28;20153;-62
2023/01/19 06:17:13;;;;;;;24.20;11.07;;;-4.50;99.90;;;;;;5097353;28;20020;-62
2023/01/19 06:19:39;;;;;;;22.17;10.43;;;-4.50;99.90;;;;;;5109176;28;20379;-62
2023/01/19 06:22:05;;;;;;;25.30;12.00;;;-4.50;99.90;;;;;;5086788;28;20043;-61
2023/01/19 06:24:31;;;;;;;29.73;12.27;;;-4.60;99.90;;;;;;5089695;28;20309;-62
2023/01/19 06:26:57;;;;;;;23.05;11.63;;;-4.60;99.90;;;;;;5088198;28;20094;-62
2023/01/19 06:29:22;;;;;;;24.85;11.48;;;-4.60;99.90;;;;;;5086476;28;20064;-62
2023/01/19 06:31:48;;;;;;;21.38;11.60;;;-4.60;99.90;;;;;;5094755;28;20496;-62
2023/01/19 06:34:14;;;;;;;27.10;12.15;;;-4.60;99.90;;;;;;5085924;28;20121;-62
2023/01/19 06:36:39;;;;;;;30.55;11.95;;;-4.50;99.90;;;;;;5091896;28;20440;-62
2023/01/19 06:39:05;;;;;;;21.38;10.32;;;-4.50;99.90;;;;;;5108404;28;20067;-62
2023/01/19 06:41:32;;;;;;;19.25;9.00;;;-4.60;99.90;;;;;;5092672;28;20051;-62
2023/01/19 06:43:58;;;;;;;14.32;7.30;;;-4.60;99.90;;;;;;5088456;28;20503;-62
2023/01/19 06:46:24;;;;;;;23.05;9.73;;;-4.60;99.90;;;;;;5094705;28;20020;-63
2023/01/19 06:48:50;;;;;;;17.27;8.70;;;-4.60;99.90;;;;;;5108510;28;20559;-62
2023/01/19 06:51:16;;;;;;;17.42;8.85;;;-4.70;99.90;;;;;;5090074;28;20031;-62
2023/01/19 06:53:41;;;;;;;15.98;7.95;;;-4.70;99.90;;;;;;5092511;28;20380;-61
2023/01/19 06:56:08;;;;;;;19.13;8.93;;;-4.70;99.90;;;;;;5088155;28;20564;-62
2023/01/19 06:58:33;;;;;;;15.80;8.00;;;-4.80;99.90;;;;;;5108265;28;20035;-62
2023/01/19 07:01:04;;;;;;;17.90;8.65;;;-4.80;99.90;;;;;;5088125;28;20036;-62
2023/01/19 07:03:30;;;;;;;16.80;7.35;;;-4.80;99.90;;;;;;5091763;28;20466;-62
2023/01/19 07:05:55;;;;;;;13.57;7.07;;;-4.80;99.90;;;;;;5086852;28;20027;-62
2023/01/19 07:08:21;;;;;;;21.23;9.57;;;-4.80;99.90;;;;;;5092226;28;20032;-62
2023/01/19 07:10:47;;;;;;;20.42;8.38;;;-4.80;99.90;;;;;;5107571;28;20020;-62
2023/01/19 07:13:13;;;;;;;14.15;7.82;;;-4.90;99.90;;;;;;5086626;28;20024;-62
2023/01/19 07:15:38;;;;;;;17.52;7.82;;;-4.80;99.90;;;;;;5105407;28;20031;-62
2023/01/19 07:18:06;;;;;;;17.40;8.90;;;-4.90;99.90;;;;;;5107324;28;20055;-62
2023/01/19 07:20:36;;;;;;;13.65;7.18;;;-4.90;99.90;;;;;;5111418;28;20110;-62
2023/01/19 07:23:02;;;;;;;20.75;9.32;;;-4.80;99.90;;;;;;5092562;28;20031;-62
2023/01/19 07:25:28;;;;;;;23.70;9.77;;;-4.80;99.90;;;;;;5097749;28;20035;-62
2023/01/19 07:27:58;;;;;;;20.92;9.82;;;-4.80;99.90;;;;;;5112612;28;20023;-62
2023/01/19 07:30:23;;;;;;;21.13;9.38;;;-4.70;99.90;;;;;;5096355;28;20047;-62
2023/01/19 07:32:49;;;;;;;16.05;8.02;;;-4.70;99.90;;;;;;5113029;28;20085;-62
2023/01/19 07:35:14;;;;;;;16.35;7.88;;;-4.70;99.90;;;;;;5091497;28;20103;-62
2023/01/19 07:37:40;;;;;;;18.63;8.75;;;-4.60;99.90;;;;;;5112166;28;20492;-62
2023/01/19 07:40:06;;;;;;;17.75;8.00;;;-4.70;99.90;;;;;;5101273;28;20080;-62
2023/01/19 07:42:32;;;;;;;19.00;8.82;;;-4.70;99.90;;;;;;5093080;28;20036;-62
2023/01/19 07:44:57;;;;;;;19.83;8.27;;;-4.60;99.90;;;;;;5110049;28;20036;-62
2023/01/19 07:47:22;;;;;;;27.70;10.30;;;-4.60;99.90;;;;;;5092878;28;20036;-62
2023/01/19 07:49:48;;;;;;;22.13;9.48;;;-4.70;99.90;;;;;;5110278;28;20592;-62
2023/01/19 07:52:13;;;;;;;21.15;8.38;;;-4.60;99.90;;;;;;5112783;28;20058;-61
2023/01/19 07:54:39;;;;;;;18.48;8.95;;;-4.60;99.90;;;;;;5097198;28;20031;-63
2023/01/19 07:57:04;;;;;;;20.67;8.95;;;-4.50;99.90;;;;;;5112657;28;20026;-62
2023/01/19 07:59:31;;;;;;;20.02;8.45;;;-4.50;99.90;;;;;;5096202;28;20032;-62
2023/01/19 08:01:58;;;;;;;16.23;7.97;;;-4.50;99.90;;;;;;5112686;28;20019;-62
2023/01/19 08:04:25;;;;;;;22.38;9.15;;;-4.50;99.90;;;;;;5094443;27;20034;-60
2023/01/19 08:06:50;;;;;;;21.35;8.60;;;-4.40;99.90;;;;;;5109941;28;20057;-61
2023/01/19 08:09:15;;;;;;;19.00;8.70;;;-4.40;99.90;;;;;;5093582;28;20024;-61
2023/01/19 08:11:41;;;;;;;18.95;7.90;;;-4.30;99.90;;;;;;5111218;28;20028;-61
2023/01/19 08:14:06;;;;;;;15.98;8.20;;;-4.20;99.90;;;;;;5092372;28;20567;-55
2023/01/19 08:16:32;;;;;;;24.08;8.63;;;-4.10;99.90;;;;;;5112284;28;20038;-56
2023/01/19 08:18:57;;;;;;;22.38;10.48;;;-4.00;99.90;;;;;;5090660;28;20037;-56
2023/01/19 08:21:23;;;;;;;18.92;9.23;;;-3.90;99.90;;;;;;5112435;28;20631;-55
2023/01/19 08:23:56;;;;;;;22.27;10.32;;;-3.80;99.90;;;;;;5092252;28;20108;-53
2023/01/19 08:26:26;;;;;;;20.30;9.02;;;-3.70;99.90;;;;;;5071654;28;20040;-54
2023/01/19 08:28:53;;;;;;;23.88;10.48;;;-3.60;99.90;;;;;;5071288;28;20108;-57
2023/01/19 08:31:19;;;;;;;21.83;10.35;;;-3.50;99.90;;;;;;5109725;28;20071;-57
2023/01/19 08:33:44;;;;;;;18.73;9.30;;;-3.30;99.90;;;;;;5091981;28;20078;-57
2023/01/19 08:36:10;;;;;;;22.63;9.43;;;-3.20;99.90;;;;;;5090173;28;20059;-53
2023/01/19 08:38:35;;;;;;;23.27;11.73;;;-3.00;99.90;;;;;;5111391;28;20063;-56
2023/01/19 08:41:01;;;;;;;22.25;11.02;;;-2.80;99.90;;;;;;5090116;28;20081;-57
2023/01/19 08:43:26;;;;;;;22.83;12.13;;;-2.60;99.90;;;;;;5110800;28;20040;-57
2023/01/19 08:45:52;;;;;;;24.20;11.10;;;-2.50;99.90;;;;;;5090102;28;20408;-57
2023/01/19 08:48:23;;;;;;;24.52;12.32;;;-2.30;99.90;;;;;;5111087;28;20036;-57
2023/01/19 08:50:50;;;;;;;20.98;10.75;;;-2.10;99.90;;;;;;5085683;28;20032;-56
2023/01/19 08:53:16;;;;;;;21.33;9.80;;;-2.00;99.90;;;;;;5111149;28;20483;-56
2023/01/19 08:55:42;;;;;;;22.45;10.88;;;-1.80;99.90;;;;;;5089666;28;20031;-56
2023/01/19 08:58:08;;;;;;;21.90;10.98;;;-1.60;99.90;;;;;;5110638;28;20403;-58
2023/01/19 09:00:36;;;;;;;21.02;10.57;;;-1.50;99.90;;;;;;5089818;28;20036;-54
2023/01/19 09:03:03;;;;;;;18.92;9.65;;;-1.30;99.90;;;;;;5111161;28;20036;-55
2023/01/19 09:05:37;;;;;;;17.58;10.00;;;-1.20;99.90;;;;;;5095280;28;20019;-54
2023/01/19 09:08:05;;;;;;;17.63;10.15;;;-1.10;99.90;;;;;;5070949;28;20037;-57
2023/01/19 09:10:34;;;;;;;24.15;11.77;;;-1.00;99.90;;;;;;5095333;28;20032;-56
2023/01/19 09:13:03;;;;;;;19.92;10.35;;;-0.80;99.90;;;;;;5110971;28;20024;-55
2023/01/19 09:15:31;;;;;;;21.05;9.57;;;-0.70;99.90;;;;;;5088914;28;20055;-55
2023/01/19 09:17:56;;;;;;;15.77;9.68;;;-0.60;99.90;;;;;;5110592;28;20031;-57
2023/01/19 09:20:22;;;;;;;18.33;10.40;;;-0.40;99.90;;;;;;5089390;28;20028;-52
2023/01/19 09:22:47;;;;;;;21.55;10.15;;;-0.30;99.90;;;;;;5110274;28;20024;-54
2023/01/19 09:25:13;;;;;;;17.65;10.25;;;-0.20;99.90;;;;;;5100335;28;20388;-54
2023/01/19 09:27:38;;;;;;;19.08;9.13;;;-0.10;99.90;;;;;;5090883;28;20040;-52
2023/01/19 09:30:05;;;;;;;17.05;8.93;;;-0.10;99.90;;;;;;5107744;28;20040;-53
2023/01/19 09:32:31;;;;;;;15.88;8.88;;;0.00;99.90;;;;;;5110999;28;20051;-54
2023/01/19 09:34:56;;;;;;;17.35;9.52;;;0.10;99.90;;;;;;5097793;28;20058;-57
2023/01/19 09:37:22;;;;;;;16.35;9.10;;;0.10;99.90;;;;;;5090817;28;20040;-55
2023/01/19 09:39:47;;;;;;;17.83;9.77;;;0.20;99.90;;;;;;5107788;28;20032;-55
2023/01/19 09:42:43;;;;;;;16.55;9.32;;;0.20;99.90;;;;;;5109907;28;20738;-57
2023/01/19 09:45:38;;;;;;;14.53;8.40;;;0.30;99.90;;;;;;5086327;28;20050;-56
2023/01/19 09:48:10;;;;;;;16.73;8.30;;;0.30;99.90;;;;;;5085898;28;20043;-54
2023/01/19 09:50:45;;;;;;;13.35;8.75;;;0.40;99.90;;;;;;5082561;28;20028;-57
2023/01/19 09:53:19;;;;;;;16.75;8.18;;;0.50;99.90;;;;;;5069843;28;20033;-54
2023/01/19 09:55:45;;;;;;;16.73;8.10;;;0.50;99.90;;;;;;5083439;28;20111;-54
2023/01/19 09:58:18;;;;;;;14.63;7.85;;;0.60;99.90;;;;;;5109521;28;20107;-52
2023/01/19 10:00:50;;;;;;;15.85;8.73;;;0.60;99.90;;;;;;5087912;28;20092;-56
2023/01/19 10:03:16;;;;;;;13.55;8.43;;;0.70;99.90;;;;;;5069556;28;20047;-55
2023/01/19 10:05:50;;;;;;;14.50;8.07;;;0.70;99.90;;;;;;5099344;28;20032;-56
2023/01/19 10:08:45;;;;;;;13.55;8.10;;;0.70;99.90;;;;;;5069533;28;20075;-55
2023/01/19 10:11:33;;;;;;;15.55;8.18;;;0.80;99.90;;;;;;5086802;28;20032;-55
2023/01/19 10:13:58;;;;;;;13.48;7.22;;;0.80;99.90;;;;;;5068499;28;20423;-54
2023/01/19 10:17:04;;;;;;;13.82;8.18;;;0.90;99.90;;;;;;5109948;28;20024;-56
2023/01/19 10:19:36;;;;;;;14.13;8.13;;;1.00;99.90;;;;;;5019448;28;20029;-56
2023/01/19 10:22:15;;;;;;;15.00;7.57;;;1.00;99.90;;;;;;5062540;28;20603;-55
2023/01/19 10:24:42;;;;;;;15.18;8.02;;;1.00;99.90;;;;;;5080157;28;20031;-56
2023/01/19 10:27:23;;;;;;;14.52;7.72;;;1.00;99.90;;;;;;5109791;28;20063;-54
2023/01/19 10:29:48;;;;;;;12.30;7.03;;;1.10;99.90;;;;;;5081985;28;20098;-54
2023/01/19 10:32:26;;;;;;;20.45;10.38;;;1.00;99.90;;;;;;5109880;28;20538;-57
2023/01/19 10:34:53;;;;;;;22.48;11.20;;;1.10;99.90;;;;;;5095319;28;20115;-56
2023/01/19 10:37:48;;;;;;;18.15;10.23;;;1.10;99.90;;;;;;5089685;28;20073;-57
2023/01/19 10:40:18;;;;;;;15.90;9.73;;;1.10;99.90;;;;;;5077070;28;20676;-54
2023/01/19 10:42:44;;;;;;;15.30;8.77;;;1.10;99.90;;;;;;5068873;28;20055;-57
2023/01/19 10:45:16;;;;;;;18.52;8.30;;;1.10;99.90;;;;;;5106347;28;20070;-57
2023/01/19 10:47:43;;;;;;;13.88;8.23;;;1.10;99.90;;;;;;5089442;28;20605;-54
2023/01/19 10:50:29;;;;;;;12.43;7.95;;;1.10;99.90;;;;;;5107058;28;20015;-56
2023/01/19 10:53:00;;;;;;;14.85;8.02;;;1.10;99.90;;;;;;5069071;28;20119;-57
2023/01/19 10:55:34;;;;;;;14.50;8.10;;;1.10;99.90;;;;;;5079983;28;20463;-56
2023/01/19 10:58:00;;;;;;;13.30;7.57;;;1.10;99.90;;;;;;5068769;28;20033;-57
2023/01/19 11:00:36;;;;;;;14.10;7.93;;;1.10;99.90;;;;;;5093488;28;20107;-57
2023/01/19 11:03:02;;;;;;;;;;;1.10;99.90;;;;;;5069130;28;20055;-57
2023/01/19 11:05:29;;;;;;;;;;;1.10;99.90;;;;;;5099027;28;19908;-58
2023/01/19 11:07:55;;;;;;;10.98;6.80;;;1.10;99.90;;;;;;5089311;28;19923;-55
2023/01/19 11:10:25;;;;;;;15.48;8.52;;;1.10;99.90;;;;;;5094691;28;20036;-56
2023/01/19 11:12:57;;;;;;;15.70;8.63;;;1.10;99.90;;;;;;5108879;28;20143;-54
2023/01/19 11:15:27;;;;;;;12.00;6.88;;;1.20;99.90;;;;;;5087020;28;20024;-57
2023/01/19 11:17:53;;;;;;;13.98;7.40;;;1.20;99.90;;;;;;5088520;28;20071;-57
2023/01/19 11:20:21;;;;;;;15.13;6.97;;;1.20;99.90;;;;;;5094764;28;20036;-53
2023/01/19 11:22:47;;;;;;;12.90;7.47;;;1.20;99.90;;;;;;5108538;28;20160;-57
2023/01/19 11:25:24;;;;;;;12.20;7.53;;;1.20;99.90;;;;;;5098120;28;20039;-57
2023/01/19 11:27:50;;;;;;;10.82;6.88;;;1.20;99.90;;;;;;5068335;28;20047;-57
2023/01/19 11:30:18;;;;;;;14.18;8.18;;;1.20;99.90;;;;;;5098251;28;20062;-58
2023/01/19 11:32:44;;;;;;;14.13;7.80;;;1.20;99.90;;;;;;5109116;28;20061;-56
2023/01/19 11:35:34;;;;;;;16.80;7.60;;;1.20;99.90;;;;;;5097719;28;20036;-57
2023/01/19 11:38:12;;;;;;;17.10;8.13;;;1.20;99.90;;;;;;5089147;28;20028;-57
2023/01/19 11:40:39;;;;;;;12.45;7.53;;;1.20;99.90;;;;;;5091818;28;20446;-57
2023/01/19 11:43:04;;;;;;;14.25;7.45;;;1.10;99.90;;;;;;5108162;28;20038;-57
2023/01/19 11:45:32;;;;;;;12.10;7.93;;;1.10;99.90;;;;;;5087398;28;20032;-56
2023/01/19 11:48:02;;;;;;;16.98;8.88;;;1.10;99.90;;;;;;5108602;28;20377;-55
2023/01/19 11:50:37;;;;;;;17.80;10.00;;;1.10;99.90;;;;;;5079756;28;20148;-56
2023/01/19 11:53:24;;;;;;;14.73;9.37;;;1.10;99.90;;;;;;5068453;28;20033;-56
2023/01/19 11:56:03;;;;;;;19.52;9.15;;;1.10;99.90;;;;;;5090560;28;20098;-56
2023/01/19 11:58:30;;;;;;;17.23;10.55;;;1.10;99.90;;;;;;5068241;28;20496;-56
2023/01/19 12:01:27;;;;;;;14.82;7.55;;;1.10;99.90;;;;;;5088791;28;20054;-58
2023/01/19 12:04:05;;;;;;;15.35;8.80;;;1.10;99.90;;;;;;5067857;28;20617;-58
2023/01/19 12:06:35;;;;;;;15.05;7.47;;;1.20;99.90;;;;;;5064706;28;20043;-56
2023/01/19 12:09:10;;;;;;;12.30;7.57;;;1.20;99.90;;;;;;5091023;28;20071;-58
2023/01/19 12:12:03;;;;;;;14.68;8.55;;;1.20;99.90;;;;;;5112522;28;20471;-57
2023/01/19 12:14:40;;;;;;;18.67;8.48;;;1.20;99.90;;;;;;5095177;28;20026;-57
2023/01/19 12:17:15;;;;;;;14.57;8.27;;;1.20;99.90;;;;;;5112535;28;20039;-58
2023/01/19 12:20:06;;;;;;;14.80;8.73;;;1.20;99.90;;;;;;5081671;28;20097;-59
2023/01/19 12:22:42;;;;;;;20.20;9.15;;;1.20;99.90;;;;;;5086190;28;20222;-58
2023/01/19 12:25:22;;;;;;;14.50;8.07;;;1.30;99.90;;;;;;5090312;28;20023;-58
2023/01/19 12:27:50;;;;;;;16.92;10.50;;;1.30;99.90;;;;;;5071556;28;20090;-58
2023/01/19 12:30:21;;;;;;;14.50;9.55;;;1.30;99.90;;;;;;5101854;28;20032;-57
2023/01/19 12:32:47;;;;;;;16.70;8.88;;;1.40;99.90;;;;;;5112231;28;20027;-58
2023/01/19 12:35:51;;;;;;;19.10;11.05;;;1.50;99.90;;;;;;5101175;28;20054;-58
2023/01/19 12:38:40;;;;;;;17.02;9.95;;;1.60;99.90;;;;;;5071159;28;20032;-58
2023/01/19 12:41:21;;;;;;;14.93;8.75;;;1.60;99.90;;;;;;5087956;28;20052;-56
2023/01/19 12:44:07;;;;;;;13.02;8.77;;;1.70;99.90;;;;;;5109379;28;20027;-55
2023/01/19 12:46:33;;;;;;;17.63;9.70;;;1.80;99.90;;;;;;5071305;28;20131;-57
2023/01/19 12:49:37;;;;;;;17.85;10.10;;;1.80;99.90;;;;;;5108424;28;20107;-58
2023/01/19 12:52:15;;;;;;;19.08;9.80;;;1.80;99.90;;;;;;5028663;28;20033;-57
2023/01/19 12:54:53;;;;;;;16.73;9.23;;;1.80;99.90;;;;;;5026339;28;20140;-57
2023/01/19 12:57:32;;;;;;;16.83;8.73;;;1.90;99.90;;;;;;5063515;28;20128;-57
2023/01/19 13:00:06;;;;;;;17.98;9.18;;;1.90;99.90;;;;;;5092769;28;20088;-57
2023/01/19 13:02:43;;;;;;;18.33;9.43;;;2.00;99.90;;;;;;5070073;28;20054;-57